Terminal Aerodrome Forecast
Issued by NWS Omaha/Valley, NE

Home | Current Version | Previous Version | Graphics & Text | Print | Product List | Glossary On
Versions: 1 2 3 4 5 6 7 8 9 10 11 12 13 14 15 16 17 18 19 20 21 22 23 24 25 26 27 28 29 30 31
174
FTUS43 KOAX 032118 AAB
TAFOFK
TAF AMD
KOFK 032118Z 0321/0418 16008KT 5SM -SN BR OVC006
     FM032300 17008KT P6SM OVC009
     FM040800 23006KT P6SM BKN015
     FM041300 27007KT P6SM SCT060=

USA.gov is the U.S. government's official web portal to all federal, state and local government web resources and services.